sensor_id;sensor_type;location;lat;lon;timestamp;P1;durP1;ratioP1;P2;durP2;ratioP2
10491;SDS011;5293;51.464;-2.566;2023-07-31T00:00:13;0.93;;;0.83;;
10491;SDS011;5293;51.464;-2.566;2023-07-31T00:02:39;1.53;;;0.90;;
10491;SDS011;5293;51.464;-2.566;2023-07-31T00:05:05;1.00;;;0.90;;
10491;SDS011;5293;51.464;-2.566;2023-07-31T00:07:33;1.43;;;1.10;;
10491;SDS011;5293;51.464;-2.566;2023-07-31T00:09:58;2.40;;;0.90;;
10491;SDS011;5293;51.464;-2.566;2023-07-31T00:12:24;1.23;;;1.13;;
10491;SDS011;5293;51.464;-2.566;2023-07-31T00:14:50;1.83;;;1.00;;
10491;SDS011;5293;51.464;-2.566;2023-07-31T00:17:16;1.43;;;1.13;;
10491;SDS011;5293;51.464;-2.566;2023-07-31T00:19:42;1.80;;;0.90;;
10491;SDS011;5293;51.464;-2.566;2023-07-31T00:22:08;1.03;;;1.03;;
10491;SDS011;5293;51.464;-2.566;2023-07-31T00:24:33;2.77;;;1.40;;
10491;SDS011;5293;51.464;-2.566;2023-07-31T00:26:59;1.00;;;0.90;;
10491;SDS011;5293;51.464;-2.566;2023-07-31T00:29:25;1.67;;;1.00;;
10491;SDS011;5293;51.464;-2.566;2023-07-31T00:31:50;1.00;;;0.90;;
10491;SDS011;5293;51.464;-2.566;2023-07-31T00:34:16;1.63;;;0.80;;
10491;SDS011;5293;51.464;-2.566;2023-07-31T00:36:41;0.83;;;0.80;;
10491;SDS011;5293;51.464;-2.566;2023-07-31T00:39:07;1.20;;;1.10;;
10491;SDS011;5293;51.464;-2.566;2023-07-31T00:41:33;2.97;;;1.10;;
10491;SDS011;5293;51.464;-2.566;2023-07-31T00:43:58;1.07;;;0.97;;
10491;SDS011;5293;51.464;-2.566;2023-07-31T00:46:24;0.70;;;0.70;;
10491;SDS011;5293;51.464;-2.566;2023-07-31T00:48:50;1.67;;;0.90;;
10491;SDS011;5293;51.464;-2.566;2023-07-31T00:51:15;1.13;;;0.70;;
10491;SDS011;5293;51.464;-2.566;2023-07-31T00:53:41;1.57;;;0.90;;
10491;SDS011;5293;51.464;-2.566;2023-07-31T00:56:08;0.83;;;0.80;;
10491;SDS011;5293;51.464;-2.566;2023-07-31T00:58:34;0.70;;;0.70;;
10491;SDS011;5293;51.464;-2.566;2023-07-31T01:01:00;0.90;;;0.90;;
10491;SDS011;5293;51.464;-2.566;2023-07-31T01:03:26;1.20;;;1.00;;
10491;SDS011;5293;51.464;-2.566;2023-07-31T01:06:02;1.37;;;1.03;;
10491;SDS011;5293;51.464;-2.566;2023-07-31T01:08:33;0.67;;;0.67;;
10491;SDS011;5293;51.464;-2.566;2023-07-31T01:11:09;1.80;;;0.87;;
10491;SDS011;5293;51.464;-2.566;2023-07-31T01:13:44;1.43;;;0.80;;
10491;SDS011;5293;51.464;-2.566;2023-07-31T01:16:11;0.63;;;0.63;;
10491;SDS011;5293;51.464;-2.566;2023-07-31T01:18:37;2.53;;;0.93;;
10491;SDS011;5293;51.464;-2.566;2023-07-31T01:21:21;1.70;;;0.87;;
10491;SDS011;5293;51.464;-2.566;2023-07-31T01:27:09;0.97;;;0.87;;
10491;SDS011;5293;51.464;-2.566;2023-07-31T01:29:38;1.00;;;0.73;;
10491;SDS011;5293;51.464;-2.566;2023-07-31T01:32:14;0.90;;;0.83;;
10491;SDS011;5293;51.464;-2.566;2023-07-31T01:34:42;2.10;;;0.90;;
10491;SDS011;5293;51.464;-2.566;2023-07-31T01:37:08;0.53;;;0.50;;
10491;SDS011;5293;51.464;-2.566;2023-07-31T01:39:34;0.63;;;0.63;;
10491;SDS011;5293;51.464;-2.566;2023-07-31T01:41:59;1.90;;;0.50;;
10491;SDS011;5293;51.464;-2.566;2023-07-31T01:44:25;0.60;;;0.60;;
10491;SDS011;5293;51.464;-2.566;2023-07-31T01:46:51;1.43;;;0.70;;
10491;SDS011;5293;51.464;-2.566;2023-07-31T01:49:17;0.50;;;0.50;;
10491;SDS011;5293;51.464;-2.566;2023-07-31T01:51:42;0.63;;;0.57;;
10491;SDS011;5293;51.464;-2.566;2023-07-31T01:54:08;0.70;;;0.53;;
10491;SDS011;5293;51.464;-2.566;2023-07-31T01:56:33;0.70;;;0.70;;
10491;SDS011;5293;51.464;-2.566;2023-07-31T01:58:59;1.13;;;0.63;;
10491;SDS011;5293;51.464;-2.566;2023-07-31T02:01:25;0.50;;;0.50;;
10491;SDS011;5293;51.464;-2.566;2023-07-31T02:03:50;1.03;;;0.50;;
10491;SDS011;5293;51.464;-2.566;2023-07-31T02:06:16;1.27;;;0.67;;
10491;SDS011;5293;51.464;-2.566;2023-07-31T02:08:42;0.80;;;0.40;;
10491;SDS011;5293;51.464;-2.566;2023-07-31T02:11:07;2.07;;;1.00;;
10491;SDS011;5293;51.464;-2.566;2023-07-31T02:13:33;2.50;;;1.53;;
10491;SDS011;5293;51.464;-2.566;2023-07-31T02:15:59;1.83;;;1.33;;
10491;SDS011;5293;51.464;-2.566;2023-07-31T02:18:24;9.57;;;2.03;;
10491;SDS011;5293;51.464;-2.566;2023-07-31T02:20:50;6.10;;;1.40;;
10491;SDS011;5293;51.464;-2.566;2023-07-31T02:23:17;6.93;;;1.50;;
10491;SDS011;5293;51.464;-2.566;2023-07-31T02:25:43;5.33;;;1.57;;
10491;SDS011;5293;51.464;-2.566;2023-07-31T02:28:09;3.17;;;1.73;;
10491;SDS011;5293;51.464;-2.566;2023-07-31T02:30:35;2.50;;;1.73;;
10491;SDS011;5293;51.464;-2.566;2023-07-31T02:33:01;3.30;;;1.63;;
10491;SDS011;5293;51.464;-2.566;2023-07-31T02:35:26;7.80;;;1.73;;
10491;SDS011;5293;51.464;-2.566;2023-07-31T02:37:52;4.60;;;1.60;;
10491;SDS011;5293;51.464;-2.566;2023-07-31T02:40:18;9.90;;;2.47;;
10491;SDS011;5293;51.464;-2.566;2023-07-31T02:42:43;10.00;;;2.10;;
10491;SDS011;5293;51.464;-2.566;2023-07-31T02:45:09;6.20;;;2.20;;
10491;SDS011;5293;51.464;-2.566;2023-07-31T02:47:35;9.37;;;2.50;;
10491;SDS011;5293;51.464;-2.566;2023-07-31T02:50:01;10.83;;;3.43;;
10491;SDS011;5293;51.464;-2.566;2023-07-31T02:52:30;11.33;;;2.90;;
10491;SDS011;5293;51.464;-2.566;2023-07-31T02:54:56;7.27;;;2.43;;
10491;SDS011;5293;51.464;-2.566;2023-07-31T02:57:22;8.50;;;2.57;;
10491;SDS011;5293;51.464;-2.566;2023-07-31T02:59:48;7.30;;;3.10;;
10491;SDS011;5293;51.464;-2.566;2023-07-31T03:02:13;10.63;;;3.07;;
10491;SDS011;5293;51.464;-2.566;2023-07-31T03:04:39;9.20;;;2.83;;
10491;SDS011;5293;51.464;-2.566;2023-07-31T03:07:05;7.17;;;2.80;;
10491;SDS011;5293;51.464;-2.566;2023-07-31T03:09:31;9.93;;;3.13;;
10491;SDS011;5293;51.464;-2.566;2023-07-31T03:11:56;7.37;;;3.17;;
10491;SDS011;5293;51.464;-2.566;2023-07-31T03:14:22;9.60;;;2.93;;
10491;SDS011;5293;51.464;-2.566;2023-07-31T03:16:48;14.20;;;3.93;;
10491;SDS011;5293;51.464;-2.566;2023-07-31T03:19:14;8.27;;;2.60;;
10491;SDS011;5293;51.464;-2.566;2023-07-31T03:21:40;7.53;;;2.50;;
10491;SDS011;5293;51.464;-2.566;2023-07-31T03:24:05;10.17;;;3.70;;
10491;SDS011;5293;51.464;-2.566;2023-07-31T03:26:32;11.83;;;2.73;;
10491;SDS011;5293;51.464;-2.566;2023-07-31T03:28:58;10.40;;;2.80;;
10491;SDS011;5293;51.464;-2.566;2023-07-31T03:31:23;7.57;;;2.83;;
10491;SDS011;5293;51.464;-2.566;2023-07-31T03:33:49;11.60;;;3.00;;
10491;SDS011;5293;51.464;-2.566;2023-07-31T03:36:14;8.20;;;2.93;;
10491;SDS011;5293;51.464;-2.566;2023-07-31T03:38:40;9.87;;;2.97;;
10491;SDS011;5293;51.464;-2.566;2023-07-31T03:41:06;10.97;;;3.30;;
10491;SDS011;5293;51.464;-2.566;2023-07-31T03:43:32;12.90;;;3.50;;
10491;SDS011;5293;51.464;-2.566;2023-07-31T03:46:00;11.07;;;3.20;;
10491;SDS011;5293;51.464;-2.566;2023-07-31T03:48:26;6.33;;;2.53;;
10491;SDS011;5293;51.464;-2.566;2023-07-31T03:50:52;7.53;;;2.83;;
10491;SDS011;5293;51.464;-2.566;2023-07-31T03:53:18;13.10;;;3.47;;
10491;SDS011;5293;51.464;-2.566;2023-07-31T03:55:43;8.30;;;3.00;;
10491;SDS011;5293;51.464;-2.566;2023-07-31T03:58:09;7.70;;;3.27;;
10491;SDS011;5293;51.464;-2.566;2023-07-31T04:00:34;7.03;;;3.30;;
10491;SDS011;5293;51.464;-2.566;2023-07-31T04:03:00;6.03;;;3.10;;
10491;SDS011;5293;51.464;-2.566;2023-07-31T04:05:26;10.97;;;3.60;;
10491;SDS011;5293;51.464;-2.566;2023-07-31T04:07:51;9.30;;;3.73;;
10491;SDS011;5293;51.464;-2.566;2023-07-31T04:10:17;9.87;;;3.83;;
10491;SDS011;5293;51.464;-2.566;2023-07-31T04:12:43;8.20;;;3.80;;
10491;SDS011;5293;51.464;-2.566;2023-07-31T04:15:08;6.63;;;2.90;;
10491;SDS011;5293;51.464;-2.566;2023-07-31T04:17:34;5.83;;;3.10;;
10491;SDS011;5293;51.464;-2.566;2023-07-31T04:20:00;7.40;;;2.87;;
10491;SDS011;5293;51.464;-2.566;2023-07-31T04:22:26;8.57;;;3.53;;
10491;SDS011;5293;51.464;-2.566;2023-07-31T04:24:52;12.63;;;3.50;;
10491;SDS011;5293;51.464;-2.566;2023-07-31T04:27:17;10.27;;;3.40;;
10491;SDS011;5293;51.464;-2.566;2023-07-31T04:29:43;9.20;;;3.83;;
10491;SDS011;5293;51.464;-2.566;2023-07-31T04:32:11;11.10;;;4.27;;
10491;SDS011;5293;51.464;-2.566;2023-07-31T04:34:36;9.43;;;4.33;;
10491;SDS011;5293;51.464;-2.566;2023-07-31T04:37:02;10.43;;;4.27;;
10491;SDS011;5293;51.464;-2.566;2023-07-31T04:39:28;9.60;;;4.10;;
10491;SDS011;5293;51.464;-2.566;2023-07-31T04:41:54;9.20;;;4.23;;
10491;SDS011;5293;51.464;-2.566;2023-07-31T04:44:19;11.47;;;4.57;;
10491;SDS011;5293;51.464;-2.566;2023-07-31T04:46:45;10.47;;;4.70;;
10491;SDS011;5293;51.464;-2.566;2023-07-31T04:49:11;8.70;;;4.37;;
10491;SDS011;5293;51.464;-2.566;2023-07-31T04:51:36;8.20;;;4.53;;
10491;SDS011;5293;51.464;-2.566;2023-07-31T04:54:02;11.50;;;4.73;;
10491;SDS011;5293;51.464;-2.566;2023-07-31T04:56:28;11.53;;;4.57;;
10491;SDS011;5293;51.464;-2.566;2023-07-31T04:58:53;14.00;;;4.97;;
10491;SDS011;5293;51.464;-2.566;2023-07-31T05:01:20;12.27;;;4.87;;
10491;SDS011;5293;51.464;-2.566;2023-07-31T05:03:45;13.10;;;5.20;;
10491;SDS011;5293;51.464;-2.566;2023-07-31T05:06:11;10.73;;;5.20;;
10491;SDS011;5293;51.464;-2.566;2023-07-31T05:08:38;15.73;;;5.40;;
10491;SDS011;5293;51.464;-2.566;2023-07-31T05:11:04;15.70;;;5.67;;
10491;SDS011;5293;51.464;-2.566;2023-07-31T05:13:30;12.23;;;5.63;;
10491;SDS011;5293;51.464;-2.566;2023-07-31T05:15:55;10.57;;;5.17;;
10491;SDS011;5293;51.464;-2.566;2023-07-31T05:18:21;12.80;;;5.40;;
10491;SDS011;5293;51.464;-2.566;2023-07-31T05:20:46;14.63;;;5.20;;
10491;SDS011;5293;51.464;-2.566;2023-07-31T05:23:12;12.00;;;5.03;;
10491;SDS011;5293;51.464;-2.566;2023-07-31T05:25:38;13.60;;;4.83;;
10491;SDS011;5293;51.464;-2.566;2023-07-31T05:28:03;12.67;;;5.47;;
10491;SDS011;5293;51.464;-2.566;2023-07-31T05:30:30;15.77;;;6.00;;
10491;SDS011;5293;51.464;-2.566;2023-07-31T05:32:56;14.30;;;4.90;;
10491;SDS011;5293;51.464;-2.566;2023-07-31T05:35:22;11.20;;;4.50;;
10491;SDS011;5293;51.464;-2.566;2023-07-31T05:37:47;12.23;;;5.03;;
10491;SDS011;5293;51.464;-2.566;2023-07-31T05:40:13;12.40;;;5.03;;
10491;SDS011;5293;51.464;-2.566;2023-07-31T05:42:39;11.10;;;4.27;;
10491;SDS011;5293;51.464;-2.566;2023-07-31T05:45:08;12.30;;;4.47;;
10491;SDS011;5293;51.464;-2.566;2023-07-31T05:47:34;14.50;;;5.17;;
10491;SDS011;5293;51.464;-2.566;2023-07-31T05:50:00;9.30;;;5.00;;
10491;SDS011;5293;51.464;-2.566;2023-07-31T05:52:25;15.20;;;4.53;;
10491;SDS011;5293;51.464;-2.566;2023-07-31T05:54:51;12.00;;;4.63;;
10491;SDS011;5293;51.464;-2.566;2023-07-31T05:57:17;11.17;;;5.07;;
10491;SDS011;5293;51.464;-2.566;2023-07-31T05:59:42;10.57;;;4.57;;
10491;SDS011;5293;51.464;-2.566;2023-07-31T06:02:08;8.53;;;4.40;;
10491;SDS011;5293;51.464;-2.566;2023-07-31T06:04:34;9.53;;;4.10;;
10491;SDS011;5293;51.464;-2.566;2023-07-31T06:06:59;6.97;;;3.67;;
10491;SDS011;5293;51.464;-2.566;2023-07-31T06:09:25;10.07;;;3.90;;
10491;SDS011;5293;51.464;-2.566;2023-07-31T06:11:51;8.10;;;3.93;;
10491;SDS011;5293;51.464;-2.566;2023-07-31T06:14:17;8.33;;;4.23;;
10491;SDS011;5293;51.464;-2.566;2023-07-31T06:16:46;13.77;;;4.43;;
10491;SDS011;5293;51.464;-2.566;2023-07-31T06:19:11;12.80;;;4.07;;
10491;SDS011;5293;51.464;-2.566;2023-07-31T06:21:37;12.03;;;4.40;;
10491;SDS011;5293;51.464;-2.566;2023-07-31T06:24:04;9.53;;;3.80;;
10491;SDS011;5293;51.464;-2.566;2023-07-31T06:26:33;9.80;;;4.50;;
10491;SDS011;5293;51.464;-2.566;2023-07-31T06:28:58;10.23;;;3.87;;
10491;SDS011;5293;51.464;-2.566;2023-07-31T06:31:24;6.50;;;3.87;;
10491;SDS011;5293;51.464;-2.566;2023-07-31T06:33:50;6.20;;;2.97;;
10491;SDS011;5293;51.464;-2.566;2023-07-31T06:36:17;9.83;;;3.73;;
10491;SDS011;5293;51.464;-2.566;2023-07-31T06:38:43;8.83;;;3.43;;
10491;SDS011;5293;51.464;-2.566;2023-07-31T06:41:08;10.80;;;3.60;;
10491;SDS011;5293;51.464;-2.566;2023-07-31T06:43:35;9.67;;;3.73;;
10491;SDS011;5293;51.464;-2.566;2023-07-31T06:46:04;11.47;;;3.77;;
10491;SDS011;5293;51.464;-2.566;2023-07-31T06:48:33;10.07;;;3.80;;
10491;SDS011;5293;51.464;-2.566;2023-07-31T06:51:00;9.53;;;3.70;;
10491;SDS011;5293;51.464;-2.566;2023-07-31T06:53:26;11.57;;;3.10;;
10491;SDS011;5293;51.464;-2.566;2023-07-31T06:55:51;6.30;;;3.37;;
10491;SDS011;5293;51.464;-2.566;2023-07-31T06:58:17;7.57;;;3.00;;
10491;SDS011;5293;51.464;-2.566;2023-07-31T07:00:43;5.60;;;2.90;;
10491;SDS011;5293;51.464;-2.566;2023-07-31T07:03:09;4.03;;;2.80;;
10491;SDS011;5293;51.464;-2.566;2023-07-31T07:05:34;8.40;;;3.30;;
10491;SDS011;5293;51.464;-2.566;2023-07-31T07:08:00;5.37;;;2.80;;
10491;SDS011;5293;51.464;-2.566;2023-07-31T07:10:26;7.40;;;2.83;;
10491;SDS011;5293;51.464;-2.566;2023-07-31T07:12:52;7.43;;;2.70;;
10491;SDS011;5293;51.464;-2.566;2023-07-31T07:15:18;7.60;;;2.57;;
10491;SDS011;5293;51.464;-2.566;2023-07-31T07:17:44;9.33;;;2.83;;
10491;SDS011;5293;51.464;-2.566;2023-07-31T07:20:09;6.90;;;2.90;;
10491;SDS011;5293;51.464;-2.566;2023-07-31T07:22:35;9.60;;;2.50;;
10491;SDS011;5293;51.464;-2.566;2023-07-31T07:25:01;7.67;;;3.20;;
10491;SDS011;5293;51.464;-2.566;2023-07-31T07:27:27;8.10;;;2.23;;
10491;SDS011;5293;51.464;-2.566;2023-07-31T07:29:52;7.57;;;2.53;;
10491;SDS011;5293;51.464;-2.566;2023-07-31T07:32:18;5.83;;;2.23;;
10491;SDS011;5293;51.464;-2.566;2023-07-31T07:34:44;6.47;;;2.90;;
10491;SDS011;5293;51.464;-2.566;2023-07-31T07:37:10;2.77;;;1.80;;
10491;SDS011;5293;51.464;-2.566;2023-07-31T07:39:36;3.97;;;2.43;;
10491;SDS011;5293;51.464;-2.566;2023-07-31T07:42:01;4.83;;;1.90;;
10491;SDS011;5293;51.464;-2.566;2023-07-31T07:44:28;3.70;;;2.07;;
10491;SDS011;5293;51.464;-2.566;2023-07-31T07:46:54;2.23;;;1.53;;
10491;SDS011;5293;51.464;-2.566;2023-07-31T07:49:19;2.87;;;2.10;;
10491;SDS011;5293;51.464;-2.566;2023-07-31T07:51:47;4.20;;;1.90;;
10491;SDS011;5293;51.464;-2.566;2023-07-31T07:54:13;4.40;;;1.60;;
10491;SDS011;5293;51.464;-2.566;2023-07-31T07:56:39;4.20;;;1.80;;
10491;SDS011;5293;51.464;-2.566;2023-07-31T07:59:05;3.57;;;1.80;;
10491;SDS011;5293;51.464;-2.566;2023-07-31T08:01:31;3.63;;;1.80;;
10491;SDS011;5293;51.464;-2.566;2023-07-31T08:03:57;5.43;;;1.90;;
10491;SDS011;5293;51.464;-2.566;2023-07-31T08:06:23;4.53;;;2.00;;
10491;SDS011;5293;51.464;-2.566;2023-07-31T08:08:49;5.17;;;2.13;;
10491;SDS011;5293;51.464;-2.566;2023-07-31T08:11:15;7.80;;;2.93;;
10491;SDS011;5293;51.464;-2.566;2023-07-31T08:13:40;5.10;;;2.70;;
10491;SDS011;5293;51.464;-2.566;2023-07-31T08:16:06;6.53;;;2.17;;
10491;SDS011;5293;51.464;-2.566;2023-07-31T08:18:32;4.03;;;2.03;;
10491;SDS011;5293;51.464;-2.566;2023-07-31T08:20:58;7.77;;;2.50;;
10491;SDS011;5293;51.464;-2.566;2023-07-31T08:23:24;5.87;;;2.30;;
10491;SDS011;5293;51.464;-2.566;2023-07-31T08:25:49;6.70;;;2.30;;
10491;SDS011;5293;51.464;-2.566;2023-07-31T08:28:16;8.43;;;2.47;;
10491;SDS011;5293;51.464;-2.566;2023-07-31T08:30:41;8.93;;;2.77;;
10491;SDS011;5293;51.464;-2.566;2023-07-31T08:33:07;8.23;;;2.70;;
10491;SDS011;5293;51.464;-2.566;2023-07-31T08:35:33;4.37;;;2.23;;
10491;SDS011;5293;51.464;-2.566;2023-07-31T08:37:59;3.73;;;2.20;;
10491;SDS011;5293;51.464;-2.566;2023-07-31T08:40:24;8.33;;;3.20;;
10491;SDS011;5293;51.464;-2.566;2023-07-31T08:42:52;6.87;;;3.10;;
10491;SDS011;5293;51.464;-2.566;2023-07-31T08:45:19;8.00;;;3.07;;
10491;SDS011;5293;51.464;-2.566;2023-07-31T08:47:46;13.43;;;3.40;;
10491;SDS011;5293;51.464;-2.566;2023-07-31T08:50:17;13.20;;;4.07;;
10491;SDS011;5293;51.464;-2.566;2023-07-31T08:52:45;8.30;;;3.43;;
10491;SDS011;5293;51.464;-2.566;2023-07-31T08:55:12;11.23;;;3.43;;
10491;SDS011;5293;51.464;-2.566;2023-07-31T08:57:38;9.80;;;3.47;;
10491;SDS011;5293;51.464;-2.566;2023-07-31T09:00:05;13.80;;;3.77;;
10491;SDS011;5293;51.464;-2.566;2023-07-31T09:02:44;10.33;;;3.73;;
10491;SDS011;5293;51.464;-2.566;2023-07-31T09:05:19;14.90;;;4.20;;
10491;SDS011;5293;51.464;-2.566;2023-07-31T09:07:47;19.10;;;5.60;;
10491;SDS011;5293;51.464;-2.566;2023-07-31T09:10:14;12.23;;;4.70;;
10491;SDS011;5293;51.464;-2.566;2023-07-31T09:12:40;13.33;;;4.30;;
10491;SDS011;5293;51.464;-2.566;2023-07-31T09:15:06;8.73;;;4.17;;
10491;SDS011;5293;51.464;-2.566;2023-07-31T09:17:34;15.17;;;4.93;;
10491;SDS011;5293;51.464;-2.566;2023-07-31T09:22:46;17.43;;;5.40;;
10491;SDS011;5293;51.464;-2.566;2023-07-31T09:25:19;13.83;;;4.67;;
10491;SDS011;5293;51.464;-2.566;2023-07-31T09:27:50;14.80;;;4.87;;
10491;SDS011;5293;51.464;-2.566;2023-07-31T09:30:16;18.37;;;5.30;;
10491;SDS011;5293;51.464;-2.566;2023-07-31T09:32:46;16.17;;;6.00;;
10491;SDS011;5293;51.464;-2.566;2023-07-31T09:35:20;14.30;;;4.97;;
10491;SDS011;5293;51.464;-2.566;2023-07-31T09:37:50;21.20;;;5.50;;
10491;SDS011;5293;51.464;-2.566;2023-07-31T09:42:53;15.73;;;5.03;;
10491;SDS011;5293;51.464;-2.566;2023-07-31T09:45:22;23.10;;;6.27;;
10491;SDS011;5293;51.464;-2.566;2023-07-31T09:47:48;19.57;;;6.17;;
10491;SDS011;5293;51.464;-2.566;2023-07-31T09:50:14;14.00;;;5.90;;
10491;SDS011;5293;51.464;-2.566;2023-07-31T09:52:41;11.73;;;5.37;;
10491;SDS011;5293;51.464;-2.566;2023-07-31T09:55:07;11.57;;;5.27;;
10491;SDS011;5293;51.464;-2.566;2023-07-31T09:57:33;14.03;;;4.63;;
10491;SDS011;5293;51.464;-2.566;2023-07-31T10:00:02;12.67;;;4.93;;
10491;SDS011;5293;51.464;-2.566;2023-07-31T10:02:27;15.77;;;5.80;;
10491;SDS011;5293;51.464;-2.566;2023-07-31T10:04:56;18.60;;;5.67;;
10491;SDS011;5293;51.464;-2.566;2023-07-31T10:07:25;15.57;;;5.67;;
10491;SDS011;5293;51.464;-2.566;2023-07-31T10:09:54;14.80;;;4.57;;
10491;SDS011;5293;51.464;-2.566;2023-07-31T10:12:22;13.87;;;4.47;;
10491;SDS011;5293;51.464;-2.566;2023-07-31T10:14:50;14.60;;;5.13;;
10491;SDS011;5293;51.464;-2.566;2023-07-31T10:17:17;14.87;;;4.37;;
10491;SDS011;5293;51.464;-2.566;2023-07-31T10:19:44;12.87;;;4.50;;
10491;SDS011;5293;51.464;-2.566;2023-07-31T10:22:10;14.30;;;4.83;;
10491;SDS011;5293;51.464;-2.566;2023-07-31T10:24:37;16.97;;;5.43;;
10491;SDS011;5293;51.464;-2.566;2023-07-31T10:27:03;12.60;;;4.63;;
10491;SDS011;5293;51.464;-2.566;2023-07-31T10:29:29;14.27;;;5.50;;
10491;SDS011;5293;51.464;-2.566;2023-07-31T10:31:56;17.40;;;5.50;;
10491;SDS011;5293;51.464;-2.566;2023-07-31T10:34:23;11.53;;;4.57;;
10491;SDS011;5293;51.464;-2.566;2023-07-31T10:36:49;11.60;;;4.70;;
10491;SDS011;5293;51.464;-2.566;2023-07-31T10:39:34;13.50;;;4.97;;
10491;SDS011;5293;51.464;-2.566;2023-07-31T10:42:11;14.33;;;5.07;;
10491;SDS011;5293;51.464;-2.566;2023-07-31T10:44:38;9.63;;;4.57;;
10491;SDS011;5293;51.464;-2.566;2023-07-31T10:47:08;15.03;;;4.70;;
10491;SDS011;5293;51.464;-2.566;2023-07-31T10:49:34;15.70;;;5.43;;
10491;SDS011;5293;51.464;-2.566;2023-07-31T10:51:59;15.60;;;4.57;;
10491;SDS011;5293;51.464;-2.566;2023-07-31T10:54:29;15.37;;;4.63;;
10491;SDS011;5293;51.464;-2.566;2023-07-31T10:56:54;14.60;;;4.97;;
10491;SDS011;5293;51.464;-2.566;2023-07-31T10:59:26;15.90;;;4.47;;
10491;SDS011;5293;51.464;-2.566;2023-07-31T11:01:54;16.13;;;4.73;;
10491;SDS011;5293;51.464;-2.566;2023-07-31T11:04:24;10.87;;;5.20;;
10491;SDS011;5293;51.464;-2.566;2023-07-31T11:07:00;12.97;;;4.40;;
10491;SDS011;5293;51.464;-2.566;2023-07-31T11:09:31;16.70;;;5.33;;
10491;SDS011;5293;51.464;-2.566;2023-07-31T11:11:58;11.50;;;4.40;;
10491;SDS011;5293;51.464;-2.566;2023-07-31T11:14:25;14.80;;;4.27;;
10491;SDS011;5293;51.464;-2.566;2023-07-31T11:16:51;14.20;;;5.07;;
10491;SDS011;5293;51.464;-2.566;2023-07-31T11:19:25;17.03;;;5.23;;
10491;SDS011;5293;51.464;-2.566;2023-07-31T11:21:53;11.47;;;4.13;;
10491;SDS011;5293;51.464;-2.566;2023-07-31T11:24:20;16.03;;;4.73;;
10491;SDS011;5293;51.464;-2.566;2023-07-31T11:26:49;16.50;;;5.53;;
10491;SDS011;5293;51.464;-2.566;2023-07-31T11:29:19;18.10;;;4.70;;
10491;SDS011;5293;51.464;-2.566;2023-07-31T11:31:45;14.50;;;4.87;;
10491;SDS011;5293;51.464;-2.566;2023-07-31T11:34:12;19.37;;;5.40;;
10491;SDS011;5293;51.464;-2.566;2023-07-31T11:36:38;17.43;;;5.37;;
10491;SDS011;5293;51.464;-2.566;2023-07-31T11:39:04;20.07;;;5.27;;
10491;SDS011;5293;51.464;-2.566;2023-07-31T11:41:31;20.33;;;5.37;;
10491;SDS011;5293;51.464;-2.566;2023-07-31T11:44:00;13.43;;;5.13;;
10491;SDS011;5293;51.464;-2.566;2023-07-31T11:46:26;19.47;;;5.17;;
10491;SDS011;5293;51.464;-2.566;2023-07-31T11:48:52;21.00;;;5.40;;
10491;SDS011;5293;51.464;-2.566;2023-07-31T11:51:23;15.37;;;4.60;;
10491;SDS011;5293;51.464;-2.566;2023-07-31T11:53:51;14.20;;;5.00;;
10491;SDS011;5293;51.464;-2.566;2023-07-31T11:56:19;11.57;;;4.90;;
10491;SDS011;5293;51.464;-2.566;2023-07-31T11:58:46;11.90;;;5.10;;
10491;SDS011;5293;51.464;-2.566;2023-07-31T12:01:14;21.67;;;5.33;;
10491;SDS011;5293;51.464;-2.566;2023-07-31T12:03:43;18.73;;;5.33;;
10491;SDS011;5293;51.464;-2.566;2023-07-31T12:06:10;16.07;;;5.43;;
10491;SDS011;5293;51.464;-2.566;2023-07-31T12:08:36;20.13;;;5.50;;
10491;SDS011;5293;51.464;-2.566;2023-07-31T12:11:05;15.43;;;5.30;;
10491;SDS011;5293;51.464;-2.566;2023-07-31T12:13:34;18.90;;;5.77;;
10491;SDS011;5293;51.464;-2.566;2023-07-31T12:16:01;19.57;;;5.20;;
10491;SDS011;5293;51.464;-2.566;2023-07-31T12:18:28;11.30;;;4.77;;
10491;SDS011;5293;51.464;-2.566;2023-07-31T12:23:22;15.07;;;6.20;;
10491;SDS011;5293;51.464;-2.566;2023-07-31T12:28:37;11.93;;;4.93;;
10491;SDS011;5293;51.464;-2.566;2023-07-31T12:31:08;11.80;;;4.97;;
10491;SDS011;5293;51.464;-2.566;2023-07-31T12:33:36;12.17;;;4.97;;
10491;SDS011;5293;51.464;-2.566;2023-07-31T12:36:07;16.73;;;5.67;;
10491;SDS011;5293;51.464;-2.566;2023-07-31T12:38:34;13.73;;;5.20;;
10491;SDS011;5293;51.464;-2.566;2023-07-31T12:41:00;15.20;;;5.07;;
10491;SDS011;5293;51.464;-2.566;2023-07-31T12:43:26;12.43;;;5.17;;
10491;SDS011;5293;51.464;-2.566;2023-07-31T12:45:51;11.53;;;4.80;;
10491;SDS011;5293;51.464;-2.566;2023-07-31T12:48:19;12.30;;;5.83;;
10491;SDS011;5293;51.464;-2.566;2023-07-31T12:50:44;17.30;;;5.90;;
10491;SDS011;5293;51.464;-2.566;2023-07-31T12:53:10;17.77;;;5.77;;
10491;SDS011;5293;51.464;-2.566;2023-07-31T12:55:35;14.20;;;5.47;;
10491;SDS011;5293;51.464;-2.566;2023-07-31T12:58:02;19.93;;;7.33;;
10491;SDS011;5293;51.464;-2.566;2023-07-31T13:00:28;14.73;;;5.60;;
10491;SDS011;5293;51.464;-2.566;2023-07-31T13:02:53;15.27;;;5.20;;
10491;SDS011;5293;51.464;-2.566;2023-07-31T13:05:19;15.67;;;5.47;;
10491;SDS011;5293;51.464;-2.566;2023-07-31T13:07:46;17.43;;;5.10;;
10491;SDS011;5293;51.464;-2.566;2023-07-31T13:10:12;12.70;;;4.97;;
10491;SDS011;5293;51.464;-2.566;2023-07-31T13:12:38;13.73;;;5.23;;
10491;SDS011;5293;51.464;-2.566;2023-07-31T13:15:04;10.83;;;4.73;;
10491;SDS011;5293;51.464;-2.566;2023-07-31T13:17:31;12.93;;;5.10;;
10491;SDS011;5293;51.464;-2.566;2023-07-31T13:19:57;13.97;;;5.30;;
10491;SDS011;5293;51.464;-2.566;2023-07-31T13:22:23;14.83;;;4.80;;
10491;SDS011;5293;51.464;-2.566;2023-07-31T13:24:48;13.53;;;6.90;;
10491;SDS011;5293;51.464;-2.566;2023-07-31T13:27:14;15.37;;;5.37;;
10491;SDS011;5293;51.464;-2.566;2023-07-31T13:29:43;9.07;;;5.17;;
10491;SDS011;5293;51.464;-2.566;2023-07-31T13:32:09;15.00;;;4.97;;
10491;SDS011;5293;51.464;-2.566;2023-07-31T13:34:35;12.90;;;4.93;;
10491;SDS011;5293;51.464;-2.566;2023-07-31T13:37:01;13.80;;;5.27;;
10491;SDS011;5293;51.464;-2.566;2023-07-31T13:39:26;11.43;;;5.07;;
10491;SDS011;5293;51.464;-2.566;2023-07-31T13:41:52;12.53;;;5.40;;
10491;SDS011;5293;51.464;-2.566;2023-07-31T13:44:18;9.70;;;4.73;;
10491;SDS011;5293;51.464;-2.566;2023-07-31T13:46:43;12.30;;;4.83;;
10491;SDS011;5293;51.464;-2.566;2023-07-31T13:49:09;12.63;;;4.90;;
10491;SDS011;5293;51.464;-2.566;2023-07-31T13:51:34;14.63;;;5.13;;
10491;SDS011;5293;51.464;-2.566;2023-07-31T13:54:01;13.90;;;4.97;;
10491;SDS011;5293;51.464;-2.566;2023-07-31T13:56:26;12.43;;;4.57;;
10491;SDS011;5293;51.464;-2.566;2023-07-31T13:58:52;17.20;;;7.03;;
10491;SDS011;5293;51.464;-2.566;2023-07-31T14:01:18;13.20;;;6.03;;
10491;SDS011;5293;51.464;-2.566;2023-07-31T14:03:43;16.93;;;5.30;;
10491;SDS011;5293;51.464;-2.566;2023-07-31T14:06:09;12.83;;;5.60;;
10491;SDS011;5293;51.464;-2.566;2023-07-31T14:08:35;13.83;;;4.80;;
10491;SDS011;5293;51.464;-2.566;2023-07-31T14:11:00;12.33;;;4.63;;
10491;SDS011;5293;51.464;-2.566;2023-07-31T14:13:26;10.80;;;4.67;;
10491;SDS011;5293;51.464;-2.566;2023-07-31T14:15:52;11.33;;;5.10;;
10491;SDS011;5293;51.464;-2.566;2023-07-31T14:18:18;6.73;;;4.07;;
10491;SDS011;5293;51.464;-2.566;2023-07-31T14:20:44;9.47;;;3.90;;
10491;SDS011;5293;51.464;-2.566;2023-07-31T14:23:09;8.80;;;4.50;;
10491;SDS011;5293;51.464;-2.566;2023-07-31T14:25:35;6.97;;;3.27;;
10491;SDS011;5293;51.464;-2.566;2023-07-31T14:28:01;9.47;;;3.73;;
10491;SDS011;5293;51.464;-2.566;2023-07-31T14:30:26;10.40;;;3.97;;
10491;SDS011;5293;51.464;-2.566;2023-07-31T14:32:52;11.53;;;4.43;;
10491;SDS011;5293;51.464;-2.566;2023-07-31T14:35:18;7.47;;;3.80;;
10491;SDS011;5293;51.464;-2.566;2023-07-31T14:37:44;7.03;;;3.57;;
10491;SDS011;5293;51.464;-2.566;2023-07-31T14:40:10;5.90;;;3.03;;
10491;SDS011;5293;51.464;-2.566;2023-07-31T14:42:37;9.63;;;3.53;;
10491;SDS011;5293;51.464;-2.566;2023-07-31T14:45:04;9.57;;;3.17;;
10491;SDS011;5293;51.464;-2.566;2023-07-31T14:47:31;8.43;;;3.70;;
10491;SDS011;5293;51.464;-2.566;2023-07-31T14:49:57;6.30;;;3.13;;